createdAt,value
2018-09-28T00:02:11.245Z,51.54
2018-09-28T00:04:37.190Z,51.82
2018-09-28T00:07:03.136Z,52.87
2018-09-28T00:09:29.170Z,52.36
2018-09-28T00:11:55.134Z,52.55
2018-09-28T00:14:21.080Z,52.03
2018-09-28T00:16:47.035Z,52.22
2018-09-28T00:19:13.168Z,52.80
2018-09-28T00:21:39.121Z,53.32
2018-09-28T00:24:05.195Z,52.67
2018-09-28T00:26:31.143Z,52.43
2018-09-28T00:28:57.188Z,52.74
2018-09-28T00:31:23.228Z,52.40
2018-09-28T00:33:49.172Z,52.13
2018-09-28T00:36:15.176Z,52.84
2018-09-28T00:38:41.119Z,52.52
2018-09-28T00:41:07.132Z,53.17
2018-09-28T00:43:33.133Z,52.84
2018-09-28T00:45:59.107Z,53.45
2018-09-28T00:48:25.064Z,53.46
2018-09-28T00:50:51.124Z,52.61
2018-09-28T00:53:17.096Z,53.16
2018-09-28T00:55:43.048Z,52.93
2018-09-28T00:58:08.997Z,53.44
2018-09-28T01:00:35.020Z,53.66
2018-09-28T01:03:00.996Z,52.96
2018-09-28T01:05:26.953Z,53.62
2018-09-28T01:07:52.912Z,53.18
2018-09-28T01:10:18.851Z,53.54
2018-09-28T01:12:44.828Z,53.33
2018-09-28T01:15:10.896Z,53.59
2018-09-28T01:17:36.852Z,53.94
2018-09-28T01:20:02.791Z,53.29
2018-09-28T01:22:28.739Z,53.30
2018-09-28T01:24:54.696Z,53.44
2018-09-28T01:27:20.630Z,52.86
2018-09-28T01:29:46.583Z,53.46
2018-09-28T01:32:12.544Z,53.15
2018-09-28T01:34:38.542Z,53.16
2018-09-28T01:37:04.542Z,53.03
2018-09-28T01:39:30.516Z,53.49
2018-09-28T01:41:56.456Z,54.05
2018-09-28T01:44:22.427Z,53.91
2018-09-28T01:46:48.368Z,53.54
2018-09-28T01:49:14.340Z,54.09
2018-09-28T01:51:40.284Z,53.82
2018-09-28T01:54:06.229Z,53.81
2018-09-28T01:56:32.167Z,53.58
2018-09-28T01:58:58.284Z,53.68
2018-09-28T02:01:24.232Z,53.92
2018-09-28T02:03:50.178Z,54.26
2018-09-28T02:06:16.119Z,54.02
2018-09-28T02:08:42.068Z,53.08
2018-09-28T02:11:08.043Z,53.97
2018-09-28T02:13:34.021Z,53.90
2018-09-28T02:15:59.976Z,54.17
2018-09-28T02:18:25.963Z,54.07
2018-09-28T02:20:51.910Z,53.38
2018-09-28T02:23:17.871Z,53.41
2018-09-28T02:25:43.829Z,54.55
2018-09-28T02:28:09.781Z,53.45
2018-09-28T02:30:35.748Z,53.87
2018-09-28T02:33:01.692Z,53.87
2018-09-28T02:35:27.642Z,53.89
2018-09-28T02:37:53.584Z,53.73
2018-09-28T02:40:19.527Z,54.14
2018-09-28T02:42:45.492Z,54.74
2018-09-28T02:45:11.411Z,54.16
2018-09-28T02:47:37.355Z,54.01
2018-09-28T02:50:03.307Z,53.98
2018-09-28T02:52:29.272Z,54.15
2018-09-28T02:54:55.211Z,53.33
2018-09-28T02:57:21.162Z,53.20
2018-09-28T02:59:47.115Z,53.65
2018-09-28T03:02:13.075Z,53.34
2018-09-28T03:04:39.025Z,53.90
2018-09-28T03:07:04.993Z,54.40
2018-09-28T03:09:30.952Z,53.94
2018-09-28T03:11:56.908Z,54.11
2018-09-28T03:14:23.116Z,54.38
2018-09-28T03:16:49.059Z,54.45
2018-09-28T03:19:14.963Z,54.10
2018-09-28T03:21:40.964Z,54.17
2018-09-28T03:24:06.925Z,54.44
2018-09-28T03:26:32.871Z,54.56
2018-09-28T03:28:58.852Z,53.96
2018-09-28T03:31:24.839Z,54.10
2018-09-28T03:33:50.796Z,54.31
2018-09-28T03:36:16.774Z,54.18
2018-09-28T03:38:42.715Z,53.93
2018-09-28T03:41:08.663Z,54.56
2018-09-28T03:43:34.633Z,54.28
2018-09-28T03:46:00.584Z,53.73
2018-09-28T03:48:26.562Z,54.02
2018-09-28T03:50:52.515Z,53.51
2018-09-28T03:53:18.497Z,53.62
2018-09-28T03:55:44.427Z,54.13
2018-09-28T03:58:10.405Z,54.54
2018-09-28T04:00:36.352Z,54.27
2018-09-28T04:03:02.400Z,54.29
2018-09-28T04:05:28.264Z,54.00
2018-09-28T04:07:54.223Z,54.24
2018-09-28T04:10:20.179Z,54.38
2018-09-28T04:12:46.125Z,54.23
2018-09-28T04:15:12.207Z,54.13
2018-09-28T04:17:38.037Z,54.58
2018-09-28T04:20:03.998Z,53.93
2018-09-28T04:22:29.944Z,54.10
2018-09-28T04:24:55.904Z,54.74
2018-09-28T04:27:21.913Z,53.63
2018-09-28T04:29:47.876Z,54.36
2018-09-28T04:32:13.828Z,54.79
2018-09-28T04:34:39.774Z,54.12
2018-09-28T04:37:05.675Z,53.75
2018-09-28T04:39:31.672Z,54.10
2018-09-28T04:41:57.685Z,54.72
2018-09-28T04:44:23.647Z,54.38
2018-09-28T04:46:49.587Z,54.09
2018-09-28T04:49:15.531Z,54.30
2018-09-28T04:51:41.505Z,53.79
2018-09-28T04:54:07.455Z,54.44
2018-09-28T04:56:33.410Z,53.72
2018-09-28T04:58:59.357Z,54.42
2018-09-28T05:01:25.448Z,54.71
2018-09-28T05:03:51.404Z,54.30
2018-09-28T05:06:17.362Z,53.82
2018-09-28T05:08:43.360Z,53.69
2018-09-28T05:11:09.299Z,53.87
2018-09-28T05:13:35.248Z,53.91
2018-09-28T05:16:01.220Z,54.21
2018-09-28T05:18:27.250Z,53.64
2018-09-28T05:20:53.231Z,54.36
2018-09-28T05:23:19.208Z,53.98
2018-09-28T05:25:45.151Z,54.54
2018-09-28T05:28:11.109Z,54.15
2018-09-28T05:30:44.968Z,53.47
2018-09-28T05:33:03.214Z,54.33
2018-09-28T05:35:29.063Z,53.69
2018-09-28T05:37:55.124Z,54.80
2018-09-28T05:40:21.075Z,53.94
2018-09-28T05:42:47.028Z,53.71
2018-09-28T05:45:12.993Z,53.82
2018-09-28T05:47:38.942Z,54.47
2018-09-28T05:50:04.917Z,54.41
2018-09-28T05:52:30.884Z,54.94
2018-09-28T05:54:56.856Z,53.88
2018-09-28T05:57:22.802Z,53.96
2018-09-28T05:59:48.768Z,54.63
2018-09-28T06:02:14.795Z,53.99
2018-09-28T06:04:40.741Z,54.18
2018-09-28T06:07:06.765Z,54.39
2018-09-28T06:09:32.908Z,53.78
2018-09-28T06:11:58.843Z,54.62
2018-09-28T06:14:24.792Z,54.34
2018-09-28T06:16:50.799Z,53.65
2018-09-28T06:19:16.749Z,54.47
2018-09-28T06:21:42.705Z,54.83
2018-09-28T06:24:08.714Z,53.87
2018-09-28T06:26:34.728Z,53.74
2018-09-28T06:29:00.681Z,54.64
2018-09-28T06:31:26.640Z,54.15
2018-09-28T06:33:52.720Z,54.24
2018-09-28T06:36:18.708Z,54.86
2018-09-28T06:38:44.614Z,54.77
2018-09-28T06:41:10.643Z,54.30
2018-09-28T06:43:36.600Z,55.17
2018-09-28T06:46:02.570Z,55.02
2018-09-28T06:48:28.683Z,54.30
2018-09-28T06:50:54.620Z,54.59
2018-09-28T06:53:20.587Z,54.99
2018-09-28T06:55:46.529Z,54.67
2018-09-28T06:58:12.512Z,54.52
2018-09-28T07:00:38.442Z,54.49
2018-09-28T07:03:04.448Z,54.72
2018-09-28T07:05:30.425Z,54.26
2018-09-28T07:07:56.389Z,55.20
2018-09-28T07:10:22.387Z,54.60
2018-09-28T07:12:48.367Z,54.84
2018-09-28T07:15:14.340Z,55.41
2018-09-28T07:17:40.327Z,54.73
2018-09-28T07:20:06.313Z,54.91
2018-09-28T07:22:32.231Z,55.18
2018-09-28T07:24:58.249Z,54.82
2018-09-28T07:27:24.126Z,55.37
2018-09-28T07:29:50.131Z,54.63
2018-09-28T07:32:16.135Z,54.74
2018-09-28T07:34:42.162Z,55.01
2018-09-28T07:37:08.378Z,55.17
2018-09-28T07:39:34.164Z,55.50
2018-09-28T07:42:00.235Z,54.46
2018-09-28T07:44:26.096Z,54.47
2018-09-28T07:46:52.096Z,54.92
2018-09-28T07:49:18.330Z,54.60
2018-09-28T07:51:44.237Z,55.31
2018-09-28T07:54:10.176Z,55.34
2018-09-28T07:56:36.140Z,55.51
2018-09-28T07:59:02.097Z,54.91
2018-09-28T08:01:28.068Z,55.01
2018-09-28T08:03:54.037Z,55.04
2018-09-28T08:06:19.970Z,55.27
2018-09-28T08:08:45.915Z,55.01
2018-09-28T08:11:11.865Z,55.52
2018-09-28T08:13:37.804Z,55.71
2018-09-28T08:16:03.771Z,56.00
2018-09-28T08:18:29.715Z,55.26
2018-09-28T08:20:55.696Z,55.26
2018-09-28T08:23:21.809Z,55.96
2018-09-28T08:25:47.661Z,55.59
2018-09-28T08:28:13.600Z,55.99
2018-09-28T08:30:39.570Z,56.08
2018-09-28T08:33:05.539Z,55.89
2018-09-28T08:35:31.508Z,56.83
2018-09-28T08:37:57.900Z,56.12
2018-09-28T08:40:23.845Z,55.98
2018-09-28T08:42:49.789Z,54.93
2018-09-28T08:45:15.743Z,55.63
2018-09-28T08:47:41.708Z,55.26
2018-09-28T08:50:07.655Z,55.74
2018-09-28T08:52:33.781Z,56.13
2018-09-28T08:54:59.729Z,56.57
2018-09-28T08:57:25.683Z,56.13
2018-09-28T08:59:51.631Z,56.48
2018-09-28T09:02:17.603Z,56.20
2018-09-28T09:04:43.563Z,56.71
2018-09-28T09:07:09.512Z,56.54
2018-09-28T09:09:35.585Z,56.15
2018-09-28T09:12:01.732Z,55.92
2018-09-28T09:14:27.696Z,56.16
2018-09-28T09:16:53.643Z,56.01
2018-09-28T09:19:19.655Z,56.80
2018-09-28T09:21:45.691Z,56.21
2018-09-28T09:24:11.648Z,56.17
2018-09-28T09:26:37.621Z,56.09
2018-09-28T09:29:03.564Z,56.84
2018-09-28T09:31:29.507Z,56.88
2018-09-28T09:33:55.544Z,56.17
2018-09-28T09:36:21.529Z,56.34
2018-09-28T09:38:47.484Z,56.63
2018-09-28T09:41:13.433Z,57.10
2018-09-28T09:43:39.387Z,56.72
2018-09-28T09:46:05.346Z,55.16
2018-09-28T09:48:31.356Z,56.72
2018-09-28T09:50:57.268Z,56.23
2018-09-28T09:53:23.218Z,56.30
2018-09-28T09:55:49.294Z,55.99
2018-09-28T09:58:15.268Z,56.24
2018-09-28T10:00:41.218Z,56.13
2018-09-28T10:03:07.175Z,55.26
2018-09-28T10:05:33.157Z,56.99
2018-09-28T10:07:59.124Z,56.83
2018-09-28T10:10:25.092Z,56.77
2018-09-28T10:12:51.070Z,57.10
2018-09-28T10:15:17.376Z,57.23
2018-09-28T10:17:43.327Z,56.71
2018-09-28T10:20:09.372Z,56.41
2018-09-28T10:22:35.366Z,57.12
2018-09-28T10:25:01.317Z,57.01
2018-09-28T10:27:27.360Z,56.67
2018-09-28T10:29:53.195Z,56.95
2018-09-28T10:32:19.167Z,57.41
2018-09-28T10:34:45.154Z,56.72
2018-09-28T10:37:11.180Z,56.23
2018-09-28T10:39:37.161Z,56.97
2018-09-28T10:42:03.084Z,55.93
2018-09-28T10:44:29.035Z,56.37
2018-09-28T10:46:55.008Z,56.33
2018-09-28T10:49:21.022Z,56.56
2018-09-28T10:51:47.261Z,56.03
2018-09-28T10:54:13.144Z,55.83
2018-09-28T10:56:39.203Z,56.02
2018-09-28T10:59:05.148Z,56.43
2018-09-28T11:01:31.099Z,57.45
2018-09-28T11:03:57.068Z,57.47
2018-09-28T11:06:23.026Z,56.43
2018-09-28T11:08:49.283Z,56.72
2018-09-28T11:11:15.244Z,57.09
2018-09-28T11:13:41.203Z,57.24
2018-09-28T11:16:07.305Z,56.78
2018-09-28T11:18:33.278Z,57.10
2018-09-28T11:20:59.232Z,57.25
2018-09-28T11:23:25.171Z,56.96
2018-09-28T11:25:51.136Z,57.58
2018-09-28T11:28:17.098Z,56.48
2018-09-28T11:30:43.069Z,56.09
2018-09-28T11:33:09.180Z,55.98
2018-09-28T11:35:35.308Z,56.28
2018-09-28T11:38:01.280Z,56.63
2018-09-28T11:40:27.267Z,56.43
2018-09-28T11:42:53.228Z,56.94
2018-09-28T11:45:19.256Z,56.62
2018-09-28T11:47:45.173Z,57.13
2018-09-28T11:50:11.122Z,56.68
2018-09-28T11:52:37.103Z,57.57
2018-09-28T11:55:03.076Z,56.86
2018-09-28T11:57:29.059Z,56.59
2018-09-28T11:59:54.993Z,56.89
2018-09-28T12:02:20.954Z,56.88
2018-09-28T12:04:46.960Z,56.93
2018-09-28T12:07:13.065Z,56.56
2018-09-28T12:09:40.115Z,56.92
2018-09-28T12:12:06.123Z,56.31
2018-09-28T12:14:32.133Z,56.77
2018-09-28T12:16:58.078Z,56.76
2018-09-28T12:19:24.056Z,56.98
2018-09-28T12:21:50.069Z,57.14
2018-09-28T12:24:16.071Z,56.23
2018-09-28T12:26:41.968Z,56.22
2018-09-28T12:29:07.916Z,55.48
2018-09-28T12:31:33.890Z,57.53
2018-09-28T12:34:00.079Z,57.02
2018-09-28T12:36:26.236Z,57.28
2018-09-28T12:38:52.072Z,55.29
2018-09-28T12:41:18.043Z,57.52
2018-09-28T12:43:44.064Z,57.07
2018-09-28T12:46:10.017Z,57.13
2018-09-28T12:48:36.003Z,56.40
2018-09-28T12:51:02.060Z,57.05
2018-09-28T12:53:27.980Z,57.34
2018-09-28T12:55:53.924Z,57.08
2018-09-28T12:58:19.988Z,57.09
2018-09-28T13:00:45.955Z,56.14
2018-09-28T13:03:11.893Z,56.30
2018-09-28T13:05:37.933Z,55.65
2018-09-28T13:08:03.873Z,56.96
2018-09-28T13:10:29.835Z,56.81
2018-09-28T13:12:55.795Z,56.37
2018-09-28T13:15:21.843Z,56.61
2018-09-28T13:17:47.796Z,55.88
2018-09-28T13:20:13.809Z,55.73
2018-09-28T13:22:39.725Z,55.81
2018-09-28T13:25:05.716Z,56.21
2018-09-28T13:27:31.655Z,56.81
2018-09-28T13:29:57.859Z,56.94
2018-09-28T13:32:23.888Z,56.89
2018-09-28T13:34:49.765Z,56.63
2018-09-28T13:37:15.764Z,56.71
2018-09-28T13:39:41.763Z,56.95
2018-09-28T13:42:07.759Z,56.76
2018-09-28T13:44:33.710Z,56.27
2018-09-28T13:46:59.764Z,56.61
2018-09-28T13:49:25.716Z,55.99
2018-09-28T13:51:51.700Z,55.51
2018-09-28T13:54:17.719Z,55.56
2018-09-28T13:56:43.660Z,55.88
2018-09-28T13:59:09.661Z,56.28
2018-09-28T14:01:35.678Z,56.37
2018-09-28T14:04:01.649Z,55.87
2018-09-28T14:06:27.732Z,55.95
2018-09-28T14:08:53.825Z,56.94
2018-09-28T14:11:19.786Z,56.67
2018-09-28T14:13:45.818Z,55.84
2018-09-28T14:16:11.854Z,56.64
2018-09-28T14:18:38.056Z,55.75
2018-09-28T14:21:03.993Z,56.80
2018-09-28T14:23:29.936Z,56.16
2018-09-28T14:25:55.892Z,56.69
2018-09-28T14:28:21.921Z,55.73
2018-09-28T14:30:47.963Z,55.96
2018-09-28T14:33:13.904Z,55.56
2018-09-28T14:35:39.859Z,56.22
2018-09-28T14:38:05.818Z,55.91
2018-09-28T14:40:31.757Z,56.57
2018-09-28T14:42:57.715Z,56.01
2018-09-28T14:45:23.676Z,56.24
2018-09-28T14:47:49.611Z,57.06
2018-09-28T14:50:15.665Z,56.05
2018-09-28T14:52:41.746Z,55.91
2018-09-28T14:55:07.643Z,56.08
2018-09-28T14:57:33.616Z,57.03
2018-09-28T14:59:59.613Z,55.37
2018-09-28T15:02:25.600Z,56.30
2018-09-28T15:04:51.507Z,56.20
2018-09-28T15:07:17.453Z,55.96
2018-09-28T15:09:43.401Z,55.72
2018-09-28T15:12:09.359Z,56.24
2018-09-28T15:14:35.332Z,55.82
2018-09-28T15:17:01.298Z,56.16
2018-09-28T15:19:27.270Z,56.08
2018-09-28T15:21:53.238Z,55.05
2018-09-28T15:24:19.175Z,54.44
2018-09-28T15:26:45.230Z,54.25
2018-09-28T15:29:11.191Z,54.66
2018-09-28T15:31:37.142Z,56.07
2018-09-28T15:34:03.121Z,54.78
2018-09-28T15:36:29.059Z,54.33
2018-09-28T15:38:54.997Z,54.09
2018-09-28T15:41:21.129Z,55.06
2018-09-28T15:43:47.096Z,55.14
2018-09-28T15:46:13.063Z,56.02
2018-09-28T15:48:39.110Z,55.61
2018-09-28T15:51:05.168Z,55.62
2018-09-28T15:53:31.115Z,56.19
2018-09-28T15:55:57.091Z,56.26
2018-09-28T15:58:23.070Z,56.25
2018-09-28T16:00:49.013Z,55.79
2018-09-28T16:03:14.980Z,55.97
2018-09-28T16:05:40.967Z,55.58
2018-09-28T16:08:06.948Z,55.65
2018-09-28T16:10:32.913Z,55.14
2018-09-28T16:12:58.892Z,55.06
2018-09-28T16:15:24.853Z,56.24
2018-09-28T16:17:50.803Z,56.20
2018-09-28T16:20:16.799Z,55.56
2018-09-28T16:22:42.744Z,55.32
2018-09-28T16:25:08.729Z,55.30
2018-09-28T16:27:34.685Z,56.17
2018-09-28T16:30:00.646Z,56.31
2018-09-28T16:32:26.589Z,56.05
2018-09-28T16:34:52.647Z,55.83
2018-09-28T16:37:18.627Z,55.73
2018-09-28T16:39:44.564Z,55.12
2018-09-28T16:42:10.516Z,55.54
2018-09-28T16:44:36.479Z,55.86
2018-09-28T16:47:02.453Z,55.18
2018-09-28T16:49:28.411Z,55.21
2018-09-28T16:51:54.428Z,55.51
2018-09-28T16:54:20.429Z,54.79
2018-09-28T16:56:46.501Z,54.81
2018-09-28T16:59:12.531Z,54.97
2018-09-28T17:01:38.498Z,55.72
2018-09-28T17:04:04.448Z,55.00
2018-09-28T17:06:30.432Z,55.64
2018-09-28T17:08:56.397Z,55.66
2018-09-28T17:11:22.356Z,55.53
2018-09-28T17:13:48.315Z,54.89
2018-09-28T17:16:14.261Z,55.29
2018-09-28T17:18:40.215Z,56.02
2018-09-28T17:21:06.197Z,55.61
2018-09-28T17:23:32.162Z,55.17
2018-09-28T17:25:58.106Z,55.54
2018-09-28T17:28:24.085Z,54.97
2018-09-28T17:30:50.082Z,54.83
2018-09-28T17:33:16.325Z,54.54
2018-09-28T17:35:42.557Z,56.34
2018-09-28T17:38:08.689Z,55.45
2018-09-28T17:40:34.923Z,54.28
2018-09-28T17:43:00.888Z,53.99
2018-09-28T17:45:26.844Z,55.22
2018-09-28T17:47:52.841Z,54.57
2018-09-28T17:50:18.798Z,55.34
2018-09-28T17:52:44.751Z,54.86
2018-09-28T17:55:10.796Z,55.78
2018-09-28T17:57:36.761Z,55.76
2018-09-28T18:00:02.718Z,55.62
2018-09-28T18:02:28.716Z,55.80
2018-09-28T18:04:54.672Z,55.67
2018-09-28T18:07:20.651Z,55.52
2018-09-28T18:09:46.602Z,55.20
2018-09-28T18:12:12.577Z,55.62
2018-09-28T18:14:38.539Z,55.76
2018-09-28T18:17:04.488Z,55.72
2018-09-28T18:19:30.448Z,54.98
2018-09-28T18:21:56.385Z,55.47
2018-09-28T18:24:22.384Z,54.64
2018-09-28T18:26:48.336Z,54.75
2018-09-28T18:29:14.348Z,55.18
2018-09-28T18:31:40.357Z,54.89
2018-09-28T18:34:06.313Z,55.10
2018-09-28T18:36:32.260Z,55.61
2018-09-28T18:38:58.215Z,55.50
2018-09-28T18:41:24.174Z,54.84
2018-09-28T18:43:50.148Z,54.63
2018-09-28T18:46:16.096Z,55.52
2018-09-28T18:48:42.053Z,55.10
2018-09-28T18:51:08.008Z,55.25
2018-09-28T18:53:34.016Z,55.15
2018-09-28T18:56:00.097Z,55.40
2018-09-28T18:58:26.036Z,55.40
2018-09-28T19:00:51.997Z,54.75
2018-09-28T19:03:18.011Z,55.85
2018-09-28T19:05:43.945Z,55.34
2018-09-28T19:08:09.883Z,55.13
2018-09-28T19:10:35.844Z,55.34
2018-09-28T19:13:01.855Z,55.32
2018-09-28T19:15:27.782Z,55.36
2018-09-28T19:17:53.778Z,54.96
2018-09-28T19:20:19.718Z,54.82
2018-09-28T19:22:45.782Z,54.94
2018-09-28T19:25:11.740Z,55.81
2018-09-28T19:27:37.728Z,54.61
2018-09-28T19:30:03.679Z,54.96
2018-09-28T19:32:29.669Z,54.85
2018-09-28T19:34:55.611Z,54.52
2018-09-28T19:37:21.572Z,55.20
2018-09-28T19:39:47.528Z,54.59
2018-09-28T19:42:13.488Z,55.40
2018-09-28T19:44:39.630Z,55.26
2018-09-28T19:47:05.727Z,55.23
2018-09-28T19:49:31.662Z,55.57
2018-09-28T19:51:57.632Z,55.40
2018-09-28T19:54:23.631Z,55.59
2018-09-28T19:56:49.588Z,55.08
2018-09-28T19:59:15.568Z,54.96
2018-09-28T20:01:41.520Z,55.09
2018-09-28T20:04:07.503Z,54.45
2018-09-28T20:06:33.497Z,55.56
2018-09-28T20:08:59.575Z,55.11
2018-09-28T20:11:25.516Z,55.09
2018-09-28T20:13:51.508Z,54.62
2018-09-28T20:16:17.503Z,54.46
2018-09-28T20:18:43.460Z,55.79
2018-09-28T20:21:09.457Z,55.51
2018-09-28T20:23:35.485Z,54.09
2018-09-28T20:26:01.558Z,53.61
2018-09-28T20:28:27.548Z,54.12
2018-09-28T20:30:53.581Z,53.90
2018-09-28T20:33:19.648Z,53.09
2018-09-28T20:35:45.788Z,52.60
2018-09-28T20:38:11.734Z,52.27
2018-09-28T20:40:37.794Z,51.79
2018-09-28T20:43:03.968Z,51.63
2018-09-28T20:45:29.913Z,51.28
2018-09-28T20:47:55.986Z,51.58
2018-09-28T20:50:22.004Z,51.18
2018-09-28T20:52:48.044Z,52.39
2018-09-28T20:55:14.008Z,53.19
2018-09-28T20:57:39.985Z,53.62
2018-09-28T21:00:06.096Z,53.55
2018-09-28T21:02:32.105Z,54.04
2018-09-28T21:04:58.054Z,53.46
2018-09-28T21:07:24.069Z,54.09
2018-09-28T21:09:50.025Z,53.50
2018-09-28T21:12:15.968Z,53.69
2018-09-28T21:14:41.925Z,53.84
2018-09-28T21:17:07.981Z,54.26
2018-09-28T21:19:33.955Z,54.11
2018-09-28T21:21:59.919Z,54.61
2018-09-28T21:24:25.922Z,53.47
2018-09-28T21:26:51.928Z,53.64
2018-09-28T21:29:17.891Z,53.91
2018-09-28T21:31:43.860Z,53.60
2018-09-28T21:34:09.836Z,53.69
2018-09-28T21:36:35.814Z,53.90
2018-09-28T21:39:01.799Z,53.68
2018-09-28T21:41:27.750Z,53.36
2018-09-28T21:43:53.691Z,53.51
2018-09-28T21:46:19.755Z,53.75
2018-09-28T21:48:45.783Z,54.18
2018-09-28T21:51:11.732Z,53.37
2018-09-28T21:53:37.683Z,54.79
2018-09-28T21:56:03.663Z,53.60
2018-09-28T21:58:29.614Z,54.40
2018-09-28T22:00:55.571Z,54.69
2018-09-28T22:03:21.548Z,54.20
2018-09-28T22:05:47.537Z,54.00
2018-09-28T22:08:13.492Z,54.14
2018-09-28T22:10:39.443Z,54.38
2018-09-28T22:13:05.419Z,53.60
2018-09-28T22:15:31.391Z,54.26
2018-09-28T22:17:57.360Z,54.42
2018-09-28T22:20:23.339Z,54.47
2018-09-28T22:22:49.381Z,53.65
2018-09-28T22:25:15.348Z,53.59
2018-09-28T22:27:41.298Z,54.41
2018-09-28T22:30:07.272Z,54.19
2018-09-28T22:32:33.278Z,54.46
2018-09-28T22:34:59.235Z,53.95
2018-09-28T22:37:25.245Z,53.78
2018-09-28T22:39:51.199Z,53.84
2018-09-28T22:42:17.139Z,54.24
2018-09-28T22:44:43.116Z,53.96
2018-09-28T22:47:09.071Z,54.06
2018-09-28T22:49:35.031Z,54.46
2018-09-28T22:52:01.003Z,54.18
2018-09-28T22:54:26.973Z,53.62
2018-09-28T22:56:52.918Z,54.40
2018-09-28T22:59:18.907Z,54.44
2018-09-28T23:01:44.897Z,53.80
2018-09-28T23:04:10.838Z,53.69
2018-09-28T23:06:36.850Z,54.45
2018-09-28T23:09:02.788Z,53.81
2018-09-28T23:11:28.823Z,53.80
2018-09-28T23:13:54.773Z,54.47
2018-09-28T23:16:20.784Z,54.08
2018-09-28T23:18:46.752Z,53.93
2018-09-28T23:21:12.746Z,54.00
2018-09-28T23:23:38.692Z,53.47
2018-09-28T23:26:04.645Z,53.93
2018-09-28T23:28:30.601Z,53.96
2018-09-28T23:30:56.653Z,54.62
2018-09-28T23:33:22.595Z,53.46
2018-09-28T23:35:48.608Z,54.19
2018-09-28T23:38:14.590Z,54.36
2018-09-28T23:40:40.548Z,54.38
2018-09-28T23:43:06.509Z,53.77
2018-09-28T23:45:32.460Z,54.33
2018-09-28T23:47:58.416Z,53.39
2018-09-28T23:50:24.392Z,54.67
2018-09-28T23:52:50.356Z,53.25
2018-09-28T23:55:16.305Z,53.42
2018-09-28T23:57:42.316Z,53.67
